createdAt,value
2022-10-12T00:00:21.539Z,6.80
2022-10-12T00:00:53.698Z,6.47
2022-10-12T00:01:25.924Z,6.67
2022-10-12T00:01:58.008Z,6.23
2022-10-12T00:02:29.987Z,6.80
2022-10-12T00:03:01.974Z,6.63
2022-10-12T00:03:34.766Z,7.10
2022-10-12T00:04:06.698Z,6.50
2022-10-12T00:04:38.662Z,6.40
2022-10-12T00:05:10.970Z,6.20
2022-10-12T00:05:42.922Z,6.23
2022-10-12T00:06:22.290Z,6.73
2022-10-12T00:06:54.323Z,6.97
2022-10-12T00:07:26.349Z,6.63
2022-10-12T00:07:58.334Z,6.90
2022-10-12T00:08:30.860Z,6.63
2022-10-12T00:09:03.542Z,6.53
2022-10-12T00:09:35.527Z,6.40
2022-10-12T00:10:07.645Z,6.00
2022-10-12T00:10:40.285Z,6.43
2022-10-12T00:11:13.834Z,6.37
2022-10-12T00:11:45.863Z,6.70
2022-10-12T00:12:17.810Z,7.00
2022-10-12T00:12:49.810Z,6.47
2022-10-12T00:13:21.841Z,6.17
2022-10-12T00:13:54.319Z,6.30
2022-10-12T00:14:26.255Z,6.53
2022-10-12T00:14:58.308Z,6.30
2022-10-12T00:15:30.313Z,6.00
2022-10-12T00:16:06.004Z,6.00
2022-10-12T00:16:38.182Z,6.30
2022-10-12T00:17:10.123Z,6.17
2022-10-12T00:17:42.092Z,6.53
2022-10-12T00:18:14.109Z,6.60
2022-10-12T00:18:49.443Z,6.50
2022-10-12T00:19:21.369Z,6.70
2022-10-12T00:19:53.318Z,6.30
2022-10-12T00:20:25.264Z,6.20
2022-10-12T00:21:08.285Z,6.57
2022-10-12T00:21:40.449Z,5.57
2022-10-12T00:22:12.486Z,6.00
2022-10-12T00:22:44.459Z,5.90
2022-10-12T00:23:16.475Z,6.20
2022-10-12T00:23:48.707Z,6.07
2022-10-12T00:24:20.635Z,6.60
2022-10-12T00:24:53.003Z,6.17
2022-10-12T00:25:24.953Z,6.17
2022-10-12T00:25:56.998Z,5.63
2022-10-12T00:26:29.131Z,6.30
2022-10-12T00:27:01.126Z,6.03
2022-10-12T00:27:33.099Z,5.73
2022-10-12T00:28:05.153Z,6.17
2022-10-12T00:28:37.306Z,5.57
2022-10-12T00:29:09.428Z,5.97
2022-10-12T00:29:41.489Z,6.30
2022-10-12T00:30:13.577Z,6.00
2022-10-12T00:30:45.549Z,5.77
2022-10-12T00:31:19.390Z,5.87
2022-10-12T00:31:51.417Z,5.77
2022-10-12T00:32:23.415Z,6.17
2022-10-12T00:32:56.443Z,6.93
2022-10-12T00:33:29.183Z,5.93
2022-10-12T00:34:02.115Z,5.67
2022-10-12T00:34:34.157Z,5.67
2022-10-12T00:35:06.303Z,5.90
2022-10-12T00:35:38.243Z,5.60
2022-10-12T00:36:11.156Z,6.33
2022-10-12T00:36:43.316Z,5.77
2022-10-12T00:37:15.300Z,6.00
2022-10-12T00:37:47.247Z,5.67
2022-10-12T00:38:19.196Z,5.47
2022-10-12T00:38:52.212Z,5.57
2022-10-12T00:39:24.159Z,5.10
2022-10-12T00:39:56.161Z,5.73
2022-10-12T00:40:28.111Z,5.93
2022-10-12T00:41:00.037Z,5.77
2022-10-12T00:41:33.861Z,6.00
2022-10-12T00:42:05.862Z,5.60
2022-10-12T00:42:37.778Z,6.03
2022-10-12T00:43:25.786Z,5.30
2022-10-12T00:43:58.976Z,5.47
2022-10-12T00:44:39.280Z,6.10
2022-10-12T00:45:11.285Z,5.80
2022-10-12T00:45:43.240Z,5.93
2022-10-12T00:46:33.070Z,6.23
2022-10-12T00:47:17.898Z,6.50
2022-10-12T00:47:51.386Z,6.20
2022-10-12T00:48:23.773Z,5.80
2022-10-12T00:49:10.007Z,6.07
2022-10-12T00:49:43.862Z,6.20
2022-10-12T00:50:17.882Z,5.33
2022-10-12T00:50:49.943Z,5.70
2022-10-12T00:51:22.424Z,5.47
2022-10-12T00:51:58.635Z,5.30
2022-10-12T00:52:35.174Z,5.60
2022-10-12T00:53:11.860Z,5.40
2022-10-12T00:53:47.323Z,4.90
2022-10-12T00:54:22.015Z,6.07
2022-10-12T00:54:54.364Z,5.33
2022-10-12T00:55:26.893Z,5.30
2022-10-12T00:56:00.561Z,5.53
2022-10-12T00:56:35.899Z,5.37
2022-10-12T00:57:09.160Z,5.60
2022-10-12T00:57:46.731Z,5.40
2022-10-12T00:58:19.444Z,5.20
2022-10-12T00:58:51.839Z,5.67
2022-10-12T00:59:26.527Z,5.23
2022-10-12T01:00:00.616Z,5.50
2022-10-12T01:00:32.695Z,5.20
2022-10-12T01:01:05.545Z,5.60
2022-10-12T01:01:38.664Z,5.20
2022-10-12T01:02:11.373Z,5.60
2022-10-12T01:02:43.644Z,5.53
2022-10-12T01:03:17.493Z,5.53
2022-10-12T01:03:49.727Z,5.70
2022-10-12T01:04:22.421Z,5.50
2022-10-12T01:04:54.664Z,5.03
2022-10-12T01:05:26.890Z,5.83
2022-10-12T01:05:59.414Z,5.57
2022-10-12T01:06:31.632Z,5.83
2022-10-12T01:07:03.552Z,5.50
2022-10-12T01:07:35.680Z,5.50
2022-10-12T01:08:07.877Z,5.50
2022-10-12T01:08:40.002Z,5.43
2022-10-12T01:09:12.027Z,5.20
2022-10-12T01:09:44.019Z,5.33
2022-10-12T01:10:16.392Z,5.30
2022-10-12T01:10:48.589Z,5.70
2022-10-12T01:11:20.537Z,5.80
2022-10-12T01:11:52.533Z,5.93
2022-10-12T01:12:24.724Z,5.33
2022-10-12T01:12:56.721Z,5.97
2022-10-12T01:13:29.491Z,5.73
2022-10-12T01:14:01.534Z,5.73
2022-10-12T01:14:33.667Z,5.70
2022-10-12T01:15:05.904Z,5.83
2022-10-12T01:15:41.153Z,5.97
2022-10-12T01:16:29.000Z,5.53
2022-10-12T01:17:06.768Z,5.70
2022-10-12T01:17:39.145Z,5.43
2022-10-12T01:18:12.065Z,5.77
2022-10-12T01:18:57.510Z,5.90
2022-10-12T01:19:43.811Z,5.03
2022-10-12T01:20:39.608Z,5.60
2022-10-12T01:21:19.042Z,5.73
2022-10-12T01:21:53.332Z,5.37
2022-10-12T01:22:25.758Z,5.67
2022-10-12T01:22:57.673Z,6.00
2022-10-12T01:23:47.880Z,5.60
2022-10-12T01:24:19.825Z,5.33
2022-10-12T01:25:12.305Z,5.37
2022-10-12T01:26:16.727Z,6.10
2022-10-12T01:27:24.277Z,6.23
2022-10-12T01:28:01.422Z,5.90
2022-10-12T01:28:33.442Z,5.93
2022-10-12T01:29:08.246Z,6.20
2022-10-12T01:29:54.980Z,5.77
2022-10-12T01:30:29.012Z,6.30
2022-10-12T01:31:16.020Z,5.33
2022-10-12T01:31:47.947Z,5.77
2022-10-12T01:32:32.177Z,5.40
2022-10-12T01:33:04.234Z,5.87
2022-10-12T01:33:39.777Z,5.80
2022-10-12T01:34:17.534Z,5.60
2022-10-12T01:34:52.357Z,5.70
2022-10-12T01:35:42.518Z,5.47
2022-10-12T01:36:32.970Z,6.00
2022-10-12T01:37:08.156Z,5.23
2022-10-12T01:37:42.938Z,5.20
2022-10-12T01:38:20.809Z,5.60
2022-10-12T01:39:02.574Z,5.53
2022-10-12T01:39:37.818Z,5.40
2022-10-12T01:40:13.747Z,5.57
2022-10-12T01:40:57.022Z,5.33
2022-10-12T01:41:40.897Z,5.77
2022-10-12T01:42:21.849Z,5.30
2022-10-12T01:42:54.336Z,5.50
2022-10-12T01:43:40.029Z,5.70
2022-10-12T01:44:12.004Z,5.53
2022-10-12T01:44:43.958Z,6.20
2022-10-12T01:45:18.231Z,5.60
2022-10-12T01:45:50.396Z,6.27
2022-10-12T01:46:25.095Z,5.80
2022-10-12T01:46:57.220Z,5.90
2022-10-12T01:47:29.255Z,5.43
2022-10-12T01:48:01.422Z,5.20
2022-10-12T01:48:33.490Z,5.73
2022-10-12T01:49:05.618Z,4.73
2022-10-12T01:49:37.902Z,6.50
2022-10-12T01:50:11.798Z,5.07
2022-10-12T01:50:49.798Z,5.67
2022-10-12T01:51:40.455Z,5.10
2022-10-12T01:52:26.005Z,5.73
2022-10-12T01:53:04.039Z,5.77
2022-10-12T01:53:42.406Z,5.60
2022-10-12T01:54:23.810Z,5.37
2022-10-12T01:55:14.562Z,5.73
2022-10-12T01:55:55.461Z,5.60
2022-10-12T01:56:40.310Z,5.87
2022-10-12T01:57:21.338Z,5.87
2022-10-12T01:58:11.374Z,5.43
2022-10-12T01:58:58.431Z,5.40
2022-10-12T01:59:42.980Z,5.30
2022-10-12T02:00:15.894Z,5.53
2022-10-12T02:00:59.622Z,5.07
2022-10-12T02:01:41.772Z,5.37
2022-10-12T02:02:18.297Z,5.63
2022-10-12T02:02:56.111Z,5.20
2022-10-12T02:03:34.896Z,5.60
2022-10-12T02:04:28.678Z,4.87
2022-10-12T02:05:05.486Z,5.10
2022-10-12T02:05:49.906Z,5.07
2022-10-12T02:06:23.008Z,5.30
2022-10-12T02:07:03.986Z,5.07
2022-10-12T02:07:44.011Z,5.67
2022-10-12T02:08:19.482Z,4.97
2022-10-12T02:08:51.460Z,5.70
2022-10-12T02:09:28.170Z,5.40
2022-10-12T02:10:01.713Z,6.20
2022-10-12T02:10:37.883Z,5.17
2022-10-12T02:11:11.120Z,5.50
2022-10-12T02:11:44.825Z,5.13
2022-10-12T02:12:19.063Z,5.03
2022-10-12T02:12:52.817Z,6.13
2022-10-12T02:13:25.933Z,5.43
2022-10-12T02:14:01.563Z,5.53
2022-10-12T02:14:45.850Z,5.57
2022-10-12T02:15:18.200Z,5.33
2022-10-12T02:15:51.049Z,5.80
2022-10-12T02:16:26.255Z,5.13
2022-10-12T02:16:59.338Z,5.00
2022-10-12T02:17:32.412Z,5.57
2022-10-12T02:18:05.332Z,5.77
2022-10-12T02:18:39.971Z,5.53
2022-10-12T02:19:14.274Z,4.90
2022-10-12T02:19:52.709Z,5.73
2022-10-12T02:20:27.412Z,5.27
2022-10-12T02:21:21.200Z,5.33
2022-10-12T02:21:56.002Z,5.27
2022-10-12T02:22:35.664Z,5.10
2022-10-12T02:23:08.161Z,5.63
2022-10-12T02:23:40.693Z,4.87
2022-10-12T02:24:13.375Z,5.17
2022-10-12T02:24:47.311Z,5.77
2022-10-12T02:25:21.162Z,5.03
2022-10-12T02:25:53.633Z,4.90
2022-10-12T02:26:25.870Z,5.47
2022-10-12T02:26:58.327Z,5.40
2022-10-12T02:27:31.890Z,5.23
2022-10-12T02:28:05.842Z,5.40
2022-10-12T02:28:38.591Z,5.40
2022-10-12T02:29:12.685Z,4.93
2022-10-12T02:29:45.807Z,4.73
2022-10-12T02:30:21.171Z,5.03
2022-10-12T02:30:59.415Z,5.57
2022-10-12T02:31:52.519Z,5.47
2022-10-12T02:32:43.035Z,5.13
2022-10-12T02:33:25.487Z,4.90
2022-10-12T02:34:03.557Z,5.30
2022-10-12T02:34:41.969Z,5.30
2022-10-12T02:35:23.196Z,5.30
2022-10-12T02:36:15.447Z,4.60
2022-10-12T02:36:56.899Z,5.20
2022-10-12T02:37:35.429Z,4.90
2022-10-12T02:38:07.961Z,5.27
2022-10-12T02:38:52.696Z,4.80
2022-10-12T02:39:33.801Z,4.80
2022-10-12T02:40:08.465Z,4.93
2022-10-12T02:41:01.640Z,4.90
2022-10-12T02:41:38.325Z,4.60
2022-10-12T02:42:13.273Z,5.00
2022-10-12T02:43:09.911Z,4.90
2022-10-12T02:43:49.675Z,4.63
2022-10-12T02:44:24.094Z,4.80
2022-10-12T02:44:57.521Z,4.77
2022-10-12T02:45:30.157Z,4.83
2022-10-12T02:46:04.446Z,4.50
2022-10-12T02:46:37.430Z,4.87
2022-10-12T02:47:10.234Z,4.73
2022-10-12T02:47:43.077Z,4.67
2022-10-12T02:48:17.489Z,5.37
2022-10-12T02:48:49.633Z,4.47
2022-10-12T02:49:24.696Z,4.83
2022-10-12T02:49:57.376Z,4.90
2022-10-12T02:50:29.846Z,4.37
2022-10-12T02:51:02.279Z,5.10
2022-10-12T02:51:35.305Z,4.70
2022-10-12T02:52:07.517Z,4.50
2022-10-12T02:52:39.638Z,4.93
2022-10-12T02:53:12.655Z,4.80
2022-10-12T02:53:45.303Z,4.93
2022-10-12T02:54:17.506Z,4.87
2022-10-12T02:54:49.492Z,4.83
2022-10-12T02:55:21.417Z,4.90
2022-10-12T02:55:56.081Z,4.83
2022-10-12T02:56:28.126Z,4.70
2022-10-12T02:57:00.100Z,3.97
2022-10-12T02:57:32.108Z,4.70
2022-10-12T02:58:04.066Z,4.87
2022-10-12T02:58:36.081Z,5.23
2022-10-12T02:59:08.057Z,4.90
2022-10-12T02:59:40.012Z,5.07
2022-10-12T03:00:12.274Z,4.50
2022-10-12T03:00:44.284Z,4.33
2022-10-12T03:01:17.116Z,4.83
2022-10-12T03:01:49.389Z,4.60
2022-10-12T03:02:21.416Z,5.00
2022-10-12T03:02:53.414Z,4.83
2022-10-12T03:03:25.417Z,4.80
2022-10-12T03:03:57.367Z,5.17
2022-10-12T03:04:29.349Z,5.13
2022-10-12T03:05:01.349Z,4.83
2022-10-12T03:05:33.306Z,5.10
2022-10-12T03:06:05.970Z,4.80
2022-10-12T03:06:38.143Z,5.07
2022-10-12T03:07:10.132Z,5.27
2022-10-12T03:07:42.086Z,4.97
2022-10-12T03:08:14.113Z,5.07
2022-10-12T03:08:46.081Z,4.47
2022-10-12T03:09:18.786Z,5.17
2022-10-12T03:09:50.785Z,4.67
2022-10-12T03:10:22.739Z,4.67
2022-10-12T03:10:54.721Z,5.00
2022-10-12T03:11:26.925Z,4.67
2022-10-12T03:11:58.852Z,5.07
2022-10-12T03:12:30.829Z,5.13
2022-10-12T03:13:02.786Z,4.80
2022-10-12T03:13:34.781Z,4.50
2022-10-12T03:14:06.700Z,5.10
2022-10-12T03:14:38.645Z,5.23
2022-10-12T03:15:10.674Z,4.93
2022-10-12T03:15:42.637Z,4.97
2022-10-12T03:16:14.626Z,4.83
2022-10-12T03:16:46.698Z,4.67
2022-10-12T03:17:18.624Z,4.97
2022-10-12T03:17:50.674Z,4.93
2022-10-12T03:18:22.627Z,4.67
2022-10-12T03:18:54.756Z,5.50
2022-10-12T03:19:26.787Z,5.10
2022-10-12T03:19:58.761Z,5.43
2022-10-12T03:20:30.732Z,5.27
2022-10-12T03:21:03.268Z,4.87
2022-10-12T03:21:35.349Z,4.93
2022-10-12T03:22:07.397Z,4.83
2022-10-12T03:22:39.420Z,5.10
2022-10-12T03:23:11.409Z,5.03
2022-10-12T03:23:43.417Z,5.53
2022-10-12T03:24:15.411Z,5.40
2022-10-12T03:24:47.394Z,5.20
2022-10-12T03:25:19.404Z,4.40
2022-10-12T03:25:51.647Z,5.23
2022-10-12T03:26:23.566Z,4.53
2022-10-12T03:26:55.529Z,4.97
2022-10-12T03:27:27.590Z,5.53
2022-10-12T03:28:00.068Z,4.90
2022-10-12T03:28:32.457Z,5.27
2022-10-12T03:29:04.600Z,4.60
2022-10-12T03:29:36.619Z,5.03
2022-10-12T03:30:09.169Z,5.03
2022-10-12T03:30:42.054Z,5.37
2022-10-12T03:31:14.226Z,5.27
2022-10-12T03:31:46.188Z,5.07
2022-10-12T03:32:18.264Z,4.80
2022-10-12T03:32:50.266Z,4.43
2022-10-12T03:33:22.364Z,4.73
2022-10-12T03:33:54.290Z,5.00
2022-10-12T03:34:26.289Z,4.80
2022-10-12T03:34:58.245Z,5.03
2022-10-12T03:35:30.240Z,4.93
2022-10-12T03:36:02.254Z,4.43
2022-10-12T03:36:34.197Z,4.53
2022-10-12T03:37:06.222Z,5.20
2022-10-12T03:37:38.552Z,4.40
2022-10-12T03:38:10.907Z,5.07
2022-10-12T03:38:42.942Z,4.13
2022-10-12T03:39:14.965Z,4.30
2022-10-12T03:39:46.943Z,4.47
2022-10-12T03:40:18.893Z,4.87
2022-10-12T03:40:51.259Z,4.47
2022-10-12T03:41:23.247Z,4.70
2022-10-12T03:41:55.179Z,4.73
2022-10-12T03:42:27.110Z,4.77
2022-10-12T03:42:59.067Z,5.10
2022-10-12T03:43:31.075Z,4.33
2022-10-12T03:44:03.242Z,4.87
2022-10-12T03:44:35.222Z,4.70
2022-10-12T03:45:07.399Z,4.90
2022-10-12T03:45:39.528Z,4.30
2022-10-12T03:46:12.152Z,4.23
2022-10-12T03:46:44.187Z,4.53
2022-10-12T03:47:16.378Z,4.13
2022-10-12T03:47:48.293Z,4.03
2022-10-12T03:48:20.686Z,4.57
2022-10-12T03:48:52.668Z,4.70
2022-10-12T03:49:24.619Z,4.00
2022-10-12T03:49:56.534Z,4.40
2022-10-12T03:50:28.552Z,5.03
2022-10-12T03:51:00.836Z,5.10
2022-10-12T03:51:32.859Z,4.40
2022-10-12T03:52:04.990Z,4.37
2022-10-12T03:52:36.961Z,4.43
2022-10-12T03:53:09.647Z,4.00
2022-10-12T03:53:45.396Z,4.23
2022-10-12T03:54:17.679Z,4.13
2022-10-12T03:54:49.668Z,4.43
2022-10-12T03:55:23.730Z,4.13
2022-10-12T03:55:55.784Z,3.67
2022-10-12T03:56:27.746Z,4.30
2022-10-12T03:56:59.781Z,5.00
2022-10-12T03:57:31.815Z,4.33
2022-10-12T03:58:03.807Z,4.20
2022-10-12T03:58:37.208Z,4.37
2022-10-12T03:59:09.174Z,4.43
2022-10-12T03:59:41.097Z,4.10
2022-10-12T04:00:13.522Z,4.37
2022-10-12T04:00:45.572Z,4.10
2022-10-12T04:01:17.662Z,4.13
2022-10-12T04:01:49.885Z,4.63
2022-10-12T04:02:21.903Z,4.60
2022-10-12T04:02:54.039Z,4.57
2022-10-12T04:03:26.082Z,4.03
2022-10-12T04:03:58.042Z,4.57
2022-10-12T04:04:30.011Z,4.20
2022-10-12T04:05:02.060Z,4.40
2022-10-12T04:05:34.044Z,4.30
2022-10-12T04:06:06.103Z,4.10
2022-10-12T04:06:38.075Z,3.80
2022-10-12T04:07:10.372Z,4.03
2022-10-12T04:07:42.340Z,4.60
2022-10-12T04:08:14.338Z,4.50
2022-10-12T04:08:50.679Z,4.67
2022-10-12T04:09:23.076Z,4.60
2022-10-12T04:09:55.508Z,4.13
2022-10-12T04:10:27.961Z,4.43
2022-10-12T04:11:00.010Z,5.27
2022-10-12T04:11:32.013Z,4.63
2022-10-12T04:12:04.077Z,4.63
2022-10-12T04:12:36.156Z,5.10
2022-10-12T04:13:08.093Z,4.50
2022-10-12T04:13:40.135Z,5.10
2022-10-12T04:14:12.075Z,4.70
2022-10-12T04:14:44.052Z,5.50
2022-10-12T04:15:18.182Z,5.40
2022-10-12T04:15:50.235Z,4.57
2022-10-12T04:16:24.103Z,5.37
2022-10-12T04:16:58.198Z,5.13
2022-10-12T04:17:30.134Z,4.57
2022-10-12T04:18:02.068Z,5.70
2022-10-12T04:18:34.412Z,5.27
2022-10-12T04:19:06.355Z,4.97
2022-10-12T04:19:38.328Z,5.33
2022-10-12T04:20:11.319Z,5.33
2022-10-12T04:20:43.330Z,4.80
2022-10-12T04:21:16.390Z,5.50
2022-10-12T04:21:48.559Z,5.60
2022-10-12T04:22:20.625Z,5.27
2022-10-12T04:22:52.589Z,5.10
2022-10-12T04:23:24.556Z,5.40
2022-10-12T04:23:56.611Z,5.00
2022-10-12T04:24:28.649Z,5.33
2022-10-12T04:25:00.658Z,5.17
2022-10-12T04:25:32.647Z,5.00
2022-10-12T04:26:04.662Z,5.27
2022-10-12T04:26:36.666Z,5.00
2022-10-12T04:27:08.625Z,5.40
2022-10-12T04:27:41.046Z,5.73
2022-10-12T04:28:13.344Z,5.37
2022-10-12T04:28:45.496Z,4.73
2022-10-12T04:29:17.527Z,4.80
2022-10-12T04:29:49.529Z,4.97
2022-10-12T04:30:21.527Z,5.03
2022-10-12T04:30:53.512Z,4.70
2022-10-12T04:31:25.431Z,5.17
2022-10-12T04:31:57.412Z,4.87
2022-10-12T04:32:30.432Z,5.20
2022-10-12T04:33:02.438Z,5.30
2022-10-12T04:33:34.389Z,4.80
2022-10-12T04:34:06.517Z,4.67
2022-10-12T04:34:38.479Z,4.53
2022-10-12T04:35:10.816Z,5.03
2022-10-12T04:35:42.871Z,5.27
2022-10-12T04:36:14.837Z,4.83
2022-10-12T04:36:46.767Z,4.77
2022-10-12T04:37:18.725Z,4.43
2022-10-12T04:37:50.647Z,4.77
2022-10-12T04:38:22.623Z,4.50
2022-10-12T04:38:59.860Z,4.50
2022-10-12T04:39:32.976Z,4.90
2022-10-12T04:40:05.156Z,5.27
2022-10-12T04:40:37.067Z,4.73
2022-10-12T04:41:09.108Z,4.87
2022-10-12T04:41:41.038Z,4.73
2022-10-12T04:42:13.055Z,5.20
2022-10-12T04:42:45.009Z,5.57
2022-10-12T04:43:17.361Z,5.73
2022-10-12T04:43:49.405Z,4.90
2022-10-12T04:44:21.829Z,5.40
2022-10-12T04:44:53.828Z,5.00
2022-10-12T04:45:26.119Z,4.60
2022-10-12T04:45:59.783Z,5.47
2022-10-12T04:46:31.931Z,5.17
2022-10-12T04:47:03.983Z,4.93
2022-10-12T04:47:36.319Z,5.20
2022-10-12T04:48:08.547Z,5.27
2022-10-12T04:48:40.527Z,4.80
2022-10-12T04:49:12.555Z,5.00
2022-10-12T04:49:44.490Z,5.80
2022-10-12T04:50:16.543Z,5.23
2022-10-12T04:50:48.566Z,5.37
2022-10-12T04:51:20.510Z,5.00
2022-10-12T04:51:52.491Z,5.03
2022-10-12T04:52:24.499Z,5.33
2022-10-12T04:52:56.466Z,5.20
2022-10-12T04:53:29.100Z,5.50
2022-10-12T04:54:01.033Z,5.43
2022-10-12T04:54:33.053Z,5.77
2022-10-12T04:55:05.243Z,5.60
2022-10-12T04:55:37.581Z,6.13
2022-10-12T04:56:09.615Z,5.77
2022-10-12T04:56:46.828Z,5.67
2022-10-12T04:57:19.799Z,5.60
2022-10-12T04:57:51.834Z,5.90
2022-10-12T04:58:23.982Z,5.17
2022-10-12T04:58:55.891Z,5.60
2022-10-12T04:59:27.915Z,5.40
2022-10-12T04:59:59.868Z,5.77
2022-10-12T05:00:31.913Z,6.00
2022-10-12T05:01:04.016Z,5.73
2022-10-12T05:01:36.040Z,5.97
2022-10-12T05:02:08.056Z,5.27
2022-10-12T05:02:40.415Z,6.17
2022-10-12T05:03:12.372Z,5.27
2022-10-12T05:03:44.709Z,5.73
2022-10-12T05:04:16.650Z,6.37
2022-10-12T05:04:48.683Z,5.53
2022-10-12T05:05:20.668Z,5.97
2022-10-12T05:05:52.884Z,5.87
2022-10-12T05:06:24.836Z,5.67
2022-10-12T05:06:56.892Z,5.70
2022-10-12T05:07:28.926Z,6.13
2022-10-12T05:08:00.901Z,5.60
2022-10-12T05:08:32.951Z,5.73
2022-10-12T05:09:04.920Z,5.83
2022-10-12T05:09:36.887Z,5.70
2022-10-12T05:10:09.209Z,5.53
2022-10-12T05:10:41.411Z,6.20
2022-10-12T05:11:13.359Z,5.53
2022-10-12T05:11:45.367Z,5.70
2022-10-12T05:12:17.438Z,5.20
2022-10-12T05:12:49.396Z,6.13
2022-10-12T05:13:21.340Z,6.27
2022-10-12T05:13:53.358Z,5.80
2022-10-12T05:14:25.383Z,5.93
2022-10-12T05:14:57.324Z,5.67
2022-10-12T05:15:29.358Z,5.50
2022-10-12T05:16:01.437Z,5.57
2022-10-12T05:16:33.434Z,5.47
2022-10-12T05:17:05.363Z,5.07
2022-10-12T05:17:37.835Z,5.00
2022-10-12T05:18:10.418Z,5.60
2022-10-12T05:18:42.398Z,5.63
2022-10-12T05:19:14.349Z,5.67
2022-10-12T05:19:46.286Z,5.47
2022-10-12T05:20:18.259Z,5.80
2022-10-12T05:20:53.325Z,5.00
2022-10-12T05:21:28.724Z,5.53
2022-10-12T05:22:00.864Z,5.27
2022-10-12T05:22:32.775Z,5.23
2022-10-12T05:23:04.895Z,5.30
2022-10-12T05:23:36.857Z,5.70
2022-10-12T05:24:09.077Z,4.83
2022-10-12T05:24:41.173Z,4.87
2022-10-12T05:25:13.176Z,5.17
2022-10-12T05:25:45.114Z,5.03
2022-10-12T05:26:17.078Z,5.10
2022-10-12T05:26:49.109Z,4.97
2022-10-12T05:27:21.237Z,5.47
2022-10-12T05:27:53.232Z,5.17
2022-10-12T05:28:25.271Z,5.30
2022-10-12T05:28:57.334Z,5.47
2022-10-12T05:29:29.325Z,4.60
2022-10-12T05:30:01.337Z,5.23
2022-10-12T05:30:33.448Z,5.27
2022-10-12T05:31:05.463Z,5.13
2022-10-12T05:31:37.390Z,5.90
2022-10-12T05:32:09.337Z,5.37
2022-10-12T05:32:41.836Z,4.90
2022-10-12T05:33:13.890Z,4.90
2022-10-12T05:33:45.838Z,4.73
2022-10-12T05:34:17.799Z,5.10
2022-10-12T05:34:49.726Z,5.30
2022-10-12T05:35:21.780Z,5.23
2022-10-12T05:35:56.566Z,4.80
2022-10-12T05:36:28.728Z,5.33
2022-10-12T05:37:01.290Z,4.77
2022-10-12T05:37:33.694Z,5.10
2022-10-12T05:38:05.726Z,4.80
2022-10-12T05:38:37.741Z,5.13
2022-10-12T05:39:09.732Z,5.30
2022-10-12T05:39:41.680Z,5.80
2022-10-12T05:40:13.700Z,4.93
2022-10-12T05:40:45.692Z,4.70
2022-10-12T05:41:17.607Z,5.10
2022-10-12T05:41:49.606Z,5.20
2022-10-12T05:42:21.594Z,4.63
2022-10-12T05:42:53.574Z,4.73
2022-10-12T05:43:25.561Z,4.67
2022-10-12T05:43:57.525Z,4.80
2022-10-12T05:44:29.490Z,4.67
2022-10-12T05:45:01.915Z,4.40
2022-10-12T05:45:33.853Z,4.93
2022-10-12T05:46:05.938Z,5.10
2022-10-12T05:46:38.000Z,4.93
2022-10-12T05:47:10.198Z,4.77
2022-10-12T05:47:42.136Z,4.80
2022-10-12T05:48:14.323Z,4.73
2022-10-12T05:48:46.411Z,4.30
2022-10-12T05:49:18.403Z,5.00
2022-10-12T05:49:50.456Z,4.40
2022-10-12T05:50:22.488Z,4.23
2022-10-12T05:50:54.918Z,4.60
2022-10-12T05:51:29.013Z,3.90
2022-10-12T05:52:01.426Z,5.17
2022-10-12T05:52:33.405Z,4.40
2022-10-12T05:53:05.425Z,5.03
2022-10-12T05:53:37.825Z,4.53
2022-10-12T05:54:09.814Z,4.63
2022-10-12T05:54:41.796Z,4.33
2022-10-12T05:55:14.136Z,4.37
2022-10-12T05:55:53.150Z,4.90
2022-10-12T05:56:25.115Z,4.63
2022-10-12T05:56:57.616Z,4.43
2022-10-12T05:57:29.543Z,5.20
2022-10-12T05:58:01.512Z,4.20
2022-10-12T05:58:33.612Z,4.53
2022-10-12T05:59:05.731Z,5.13
2022-10-12T05:59:37.725Z,4.57
2022-10-12T06:00:10.000Z,4.50
2022-10-12T06:00:42.004Z,4.30
2022-10-12T06:01:14.050Z,4.83
2022-10-12T06:01:46.079Z,4.37
2022-10-12T06:02:18.282Z,4.67
2022-10-12T06:02:50.305Z,4.63
2022-10-12T06:03:25.937Z,4.27
2022-10-12T06:03:58.898Z,4.77
2022-10-12T06:04:30.872Z,5.10
2022-10-12T06:05:02.937Z,4.43
2022-10-12T06:05:35.212Z,4.10
2022-10-12T06:06:07.590Z,4.77
2022-10-12T06:06:39.610Z,4.30
2022-10-12T06:07:11.531Z,5.03
2022-10-12T06:07:43.508Z,4.43
2022-10-12T06:08:15.484Z,4.57
2022-10-12T06:08:47.528Z,4.50
2022-10-12T06:09:19.560Z,4.60
2022-10-12T06:09:51.813Z,5.00
2022-10-12T06:10:27.702Z,4.23
2022-10-12T06:11:02.322Z,4.53
2022-10-12T06:11:36.398Z,4.63
2022-10-12T06:12:08.802Z,4.20
2022-10-12T06:12:41.055Z,4.73
2022-10-12T06:13:13.577Z,4.53
2022-10-12T06:13:45.570Z,4.70
2022-10-12T06:14:17.594Z,4.37
2022-10-12T06:14:49.786Z,4.40
2022-10-12T06:15:21.793Z,4.23
2022-10-12T06:15:53.961Z,4.83
2022-10-12T06:16:25.908Z,4.23
2022-10-12T06:16:57.965Z,4.33
2022-10-12T06:17:29.991Z,4.53
2022-10-12T06:18:02.013Z,4.30
2022-10-12T06:18:34.027Z,4.83
2022-10-12T06:19:06.007Z,4.57
2022-10-12T06:19:37.989Z,3.70
2022-10-12T06:20:10.361Z,4.60
2022-10-12T06:20:46.096Z,4.43
2022-10-12T06:21:34.584Z,4.27
2022-10-12T06:22:07.671Z,4.50
2022-10-12T06:22:40.269Z,4.33
2022-10-12T06:23:12.463Z,4.37
2022-10-12T06:23:44.411Z,4.37
2022-10-12T06:24:16.405Z,4.17
2022-10-12T06:24:48.370Z,4.13
2022-10-12T06:25:20.300Z,4.37
2022-10-12T06:25:52.457Z,4.27
2022-10-12T06:26:24.979Z,4.63
2022-10-12T06:26:57.033Z,4.70
2022-10-12T06:27:29.058Z,4.33
2022-10-12T06:28:01.064Z,4.50
2022-10-12T06:28:33.127Z,3.70
2022-10-12T06:29:05.163Z,4.33
2022-10-12T06:29:38.331Z,4.70
2022-10-12T06:30:10.541Z,3.97
2022-10-12T06:30:42.569Z,4.37
2022-10-12T06:31:15.010Z,4.57
2022-10-12T06:31:51.414Z,4.40
2022-10-12T06:32:23.894Z,4.10
2022-10-12T06:32:55.968Z,4.33
2022-10-12T06:33:28.315Z,4.70
2022-10-12T06:34:00.267Z,4.50
2022-10-12T06:34:32.209Z,4.03
2022-10-12T06:35:04.633Z,4.30
2022-10-12T06:35:36.732Z,4.60
2022-10-12T06:36:08.698Z,4.20
2022-10-12T06:36:40.672Z,4.73
2022-10-12T06:37:25.309Z,4.30
2022-10-12T06:38:05.000Z,3.93
2022-10-12T06:38:37.060Z,4.53
2022-10-12T06:39:10.015Z,3.97
2022-10-12T06:39:41.936Z,4.43
2022-10-12T06:40:13.959Z,4.30
2022-10-12T06:40:45.932Z,4.40
2022-10-12T06:41:17.874Z,4.03
2022-10-12T06:41:50.011Z,4.30
2022-10-12T06:42:24.647Z,3.80
2022-10-12T06:43:02.597Z,3.90
2022-10-12T06:43:34.675Z,3.90
2022-10-12T06:44:06.999Z,4.10
2022-10-12T06:44:39.000Z,4.23
2022-10-12T06:45:11.635Z,4.03
2022-10-12T06:45:43.608Z,3.87
2022-10-12T06:46:15.630Z,4.27
2022-10-12T06:46:47.718Z,4.20
2022-10-12T06:47:19.673Z,3.97
2022-10-12T06:47:51.577Z,4.37
2022-10-12T06:48:23.501Z,4.30
2022-10-12T06:48:55.435Z,3.80
2022-10-12T06:49:27.433Z,4.40
2022-10-12T06:49:59.472Z,3.90
2022-10-12T06:50:31.489Z,3.70
2022-10-12T06:51:03.504Z,3.90
2022-10-12T06:51:35.499Z,4.10
2022-10-12T06:52:07.429Z,3.90
2022-10-12T06:52:39.682Z,4.00
2022-10-12T06:53:11.905Z,4.13
2022-10-12T06:53:44.307Z,4.43
2022-10-12T06:54:16.367Z,3.90
2022-10-12T06:54:48.358Z,4.47
2022-10-12T06:55:20.649Z,4.17
2022-10-12T06:55:52.606Z,4.00
2022-10-12T06:56:24.567Z,3.97
2022-10-12T06:56:58.852Z,4.03
2022-10-12T06:57:30.945Z,4.50
2022-10-12T06:58:02.875Z,3.90
2022-10-12T06:58:35.329Z,4.00
2022-10-12T06:59:07.311Z,3.93
2022-10-12T06:59:39.261Z,3.80
2022-10-12T07:00:12.341Z,3.93
2022-10-12T07:00:44.303Z,3.57
2022-10-12T07:01:16.817Z,4.23
2022-10-12T07:01:49.831Z,3.60
2022-10-12T07:02:21.982Z,3.77
2022-10-12T07:02:54.170Z,3.60
2022-10-12T07:03:26.163Z,3.97
2022-10-12T07:04:00.689Z,3.67
2022-10-12T07:04:33.085Z,3.83
2022-10-12T07:05:05.389Z,3.60
2022-10-12T07:05:37.329Z,3.87
2022-10-12T07:06:10.295Z,4.03
2022-10-12T07:06:42.311Z,4.30
2022-10-12T07:07:14.265Z,4.00
2022-10-12T07:07:46.254Z,3.90
2022-10-12T07:08:18.241Z,3.87
2022-10-12T07:08:53.572Z,3.80
2022-10-12T07:09:25.567Z,3.90
2022-10-12T07:09:57.657Z,3.93
2022-10-12T07:10:29.713Z,4.07
2022-10-12T07:11:02.446Z,3.90
2022-10-12T07:11:34.589Z,3.40
2022-10-12T07:12:06.695Z,3.77
2022-10-12T07:12:39.420Z,4.10
2022-10-12T07:13:11.772Z,3.77
2022-10-12T07:13:43.803Z,4.67
2022-10-12T07:14:15.822Z,3.63
2022-10-12T07:14:47.780Z,3.60
2022-10-12T07:15:19.831Z,3.90
2022-10-12T07:15:51.785Z,4.10
2022-10-12T07:16:23.829Z,3.70
2022-10-12T07:16:55.802Z,3.93
2022-10-12T07:17:27.765Z,3.53
2022-10-12T07:17:59.693Z,3.87
2022-10-12T07:18:31.731Z,3.50
2022-10-12T07:19:03.759Z,3.50
2022-10-12T07:19:35.823Z,4.10
2022-10-12T07:20:07.997Z,3.97
2022-10-12T07:20:40.446Z,3.77
2022-10-12T07:21:12.446Z,3.70
2022-10-12T07:21:44.666Z,4.00
2022-10-12T07:22:16.615Z,3.97
2022-10-12T07:22:48.586Z,4.00
2022-10-12T07:23:20.567Z,3.87
2022-10-12T07:23:53.002Z,3.87
2022-10-12T07:24:24.961Z,4.00
2022-10-12T07:24:56.921Z,4.40
2022-10-12T07:25:29.016Z,4.10
2022-10-12T07:26:01.303Z,3.87
2022-10-12T07:26:33.351Z,3.67
2022-10-12T07:27:07.722Z,3.67
2022-10-12T07:27:40.058Z,4.03